Time;durP1;ratioP1;P1;durP2;ratioP2;P2;SDS_P1;SDS_P2;PMS_P1;PMS_P2;Temp;Humidity;BMP_temperature;BMP_pressure;BME280_temperature;BME280_humidity;BME280_pressure;Samples;Min_cycle;Max_cycle;Signal;HPM_P1;HPM_P2
2022/02/23 00:00:30;;;;;;;20.33;3.53;;;;;;;5.77;80.84;98961.66;4819524;29;20065;-76
2022/02/23 00:02:55;;;;;;;18.48;3.50;;;;;;;5.73;80.52;98968.44;4821984;29;20042;-77
2022/02/23 00:05:21;;;;;;;13.65;3.25;;;;;;;5.70;80.58;98959.06;4823961;29;20733;-77
2022/02/23 00:07:46;;;;;;;10.00;2.78;;;;;;;5.75;80.91;98971.66;4821653;29;20043;-76
2022/02/23 00:10:12;;;;;;;15.60;3.10;;;;;;;5.74;80.73;98986.78;4824624;29;20042;-77
2022/02/23 00:12:38;;;;;;;10.05;3.13;;;;;;;5.72;80.67;98977.41;4822334;29;20052;-77
2022/02/23 00:15:03;;;;;;;22.30;4.07;;;;;;;5.73;81.12;98984.31;4824138;29;20121;-76
2022/02/23 00:17:29;;;;;;;14.30;3.50;;;;;;;5.72;81.35;99004.69;4819523;29;20476;-76
2022/02/23 00:19:55;;;;;;;20.80;5.53;;;;;;;5.69;81.26;99010.41;4822975;29;20030;-76
2022/02/23 00:22:22;;;;;;;23.80;4.18;;;;;;;5.66;81.06;99012.66;4820139;29;20385;-75
2022/02/23 00:24:47;;;;;;;22.23;5.47;;;;;;;5.64;81.45;99010.25;4814854;29;20034;-76
2022/02/23 00:27:13;;;;;;;18.65;4.07;;;;;;;5.56;80.79;98999.09;4821193;29;20107;-76
2022/02/23 00:29:39;;;;;;;16.65;4.30;;;;;;;5.62;81.13;99008.81;4821244;29;20086;-76
2022/02/23 00:32:05;;;;;;;21.85;5.00;;;;;;;5.56;81.11;99013.16;4821281;29;20075;-76
2022/02/23 00:34:30;;;;;;;17.88;4.78;;;;;;;5.57;80.93;99008.66;4819653;29;20074;-76
2022/02/23 00:36:56;;;;;;;17.35;4.97;;;;;;;5.56;80.58;99017.63;4822042;29;20097;-76
2022/02/23 00:39:22;;;;;;;18.55;6.75;;;;;;;5.58;81.12;99020.88;4822226;29;20038;-76
2022/02/23 00:41:47;;;;;;;20.02;5.70;;;;;;;5.58;80.95;99031.47;4821497;29;20045;-76
2022/02/23 00:44:13;;;;;;;15.75;4.75;;;;;;;5.59;80.48;99038.38;4823703;29;20102;-76
2022/02/23 00:46:40;;;;;;;15.95;4.95;;;;;;;5.59;80.75;99041.03;4818661;29;20405;-76
2022/02/23 00:49:05;;;;;;;21.75;6.72;;;;;;;5.53;80.64;99037.38;4820725;29;20038;-76
2022/02/23 00:51:31;;;;;;;22.35;5.45;;;;;;;5.50;80.38;99051.06;4821900;29;20041;-76
2022/02/23 00:53:57;;;;;;;21.95;5.22;;;;;;;5.54;81.13;99046.97;4822161;29;20050;-76
2022/02/23 00:56:22;;;;;;;16.67;5.32;;;;;;;5.48;80.92;99039.88;4821517;29;20034;-76
2022/02/23 00:58:48;;;;;;;15.85;4.55;;;;;;;5.48;80.50;99041.69;4825470;29;20041;-76
2022/02/23 01:01:13;;;;;;;17.80;4.35;;;;;;;5.54;80.50;99051.44;4824540;29;20038;-76
2022/02/23 01:03:38;;;;;;;16.98;5.47;;;;;;;5.52;80.73;99043.72;4823376;29;20057;-76
2022/02/23 01:06:04;;;;;;;17.25;4.57;;;;;;;5.51;80.80;99050.03;4819700;29;20050;-76
2022/02/23 01:08:29;;;;;;;13.80;4.80;;;;;;;5.51;80.75;99051.84;4821848;29;20030;-76
2022/02/23 01:10:54;;;;;;;24.77;6.97;;;;;;;5.48;81.37;99058.41;4821361;29;20069;-76
2022/02/23 01:13:19;;;;;;;18.08;4.57;;;;;;;5.45;80.62;99056.16;4820808;29;20122;-77
2022/02/23 01:15:45;;;;;;;19.27;4.68;;;;;;;5.48;80.97;99062.88;4825817;29;20046;-76
2022/02/23 01:18:10;;;;;;;21.23;4.55;;;;;;;5.43;81.29;99065.34;4823510;29;20552;-76
2022/02/23 01:20:36;;;;;;;21.75;5.50;;;;;;;5.44;81.38;99080.22;4825104;29;20053;-76
2022/02/23 01:23:02;;;;;;;14.98;4.95;;;;;;;5.40;80.91;99077.16;4823110;29;20514;-76
2022/02/23 01:25:29;;;;;;;22.52;4.78;;;;;;;5.42;81.12;99079.59;4821850;29;20576;-75
2022/02/23 01:27:55;;;;;;;13.27;4.32;;;;;;;5.40;80.89;99095.69;4821945;29;20554;-77
2022/02/23 01:30:20;;;;;;;14.15;4.30;;;;;;;5.43;81.14;99099.75;4822706;29;20030;-77
2022/02/23 01:32:46;;;;;;;13.00;4.07;;;;;;;5.43;80.96;99097.91;4824927;29;20051;-76
2022/02/23 01:35:11;;;;;;;12.27;3.85;;;;;;;5.39;80.75;99107.28;4822604;29;20573;-77
2022/02/23 01:37:37;;;;;;;20.55;4.28;;;;;;;5.39;80.79;99093.25;4822174;29;20401;-77
2022/02/23 01:40:03;;;;;;;15.18;4.72;;;;;;;5.39;81.56;99101.19;4822438;29;20038;-76
2022/02/23 01:42:28;;;;;;;16.40;4.25;;;;;;;5.39;80.41;99102.00;4821461;29;20504;-76
2022/02/23 01:44:54;;;;;;;20.70;4.90;;;;;;;5.32;80.58;99101.22;4823159;29;20115;-75
2022/02/23 01:47:19;;;;;;;16.92;4.32;;;;;;;5.37;81.41;99109.34;4822494;29;20483;-75
2022/02/23 01:49:44;;;;;;;12.60;3.97;;;;;;;5.35;81.21;99115.84;4822799;29;20404;-75
2022/02/23 01:52:10;;;;;;;18.60;4.22;;;;;;;5.29;80.61;99104.25;4821338;29;20062;-76
2022/02/23 01:54:35;;;;;;;21.65;4.50;;;;;;;5.37;81.14;99114.63;4823009;29;20037;-75
2022/02/23 01:57:00;;;;;;;14.35;3.92;;;;;;;5.36;81.03;99123.59;4822606;29;20034;-77
2022/02/23 01:59:26;;;;;;;17.90;4.55;;;;;;;5.34;81.50;99120.34;4823618;29;20078;-75
2022/02/23 02:01:54;;;;;;;25.75;6.20;;;;;;;5.39;81.19;99127.66;4826352;29;20037;-75
2022/02/23 02:04:23;;;;;;;19.38;5.60;;;;;;;5.37;81.81;99124.41;4823555;29;20049;-77
2022/02/23 02:06:49;;;;;;;18.13;5.40;;;;;;;5.33;81.46;99121.34;4822368;29;20037;-76
2022/02/23 02:09:15;;;;;;;18.65;4.53;;;;;;;5.37;81.12;99124.41;4821749;29;20061;-76
2022/02/23 02:11:41;;;;;;;23.80;5.32;;;;;;;5.32;81.43;99115.25;4822071;29;20075;-76
2022/02/23 02:14:06;;;;;;;19.77;5.55;;;;;;;5.37;81.20;99130.50;4821335;29;20030;-75
2022/02/23 02:16:31;;;;;;;18.45;5.75;;;;;;;5.37;81.47;99146.41;4819241;29;20039;-75
2022/02/23 02:18:58;;;;;;;19.35;5.70;;;;;;;5.28;81.19;99131.75;4823499;29;20167;-75
2022/02/23 02:21:29;;;;;;;14.82;4.10;;;;;;;5.35;81.17;99137.03;4822679;29;20059;-76
2022/02/23 02:23:54;;;;;;;20.13;5.13;;;;;;;5.34;80.77;99130.91;4822169;29;20034;-76
2022/02/23 02:26:20;;;;;;;17.90;4.63;;;;;;;5.38;81.41;99137.41;4823408;29;20400;-77
2022/02/23 02:28:45;;;;;;;23.33;3.70;;;;;;;5.32;81.31;99144.38;4823683;29;20030;-76
2022/02/23 02:31:11;;;;;;;25.75;4.47;;;;;;;5.33;81.09;99145.16;4822024;29;20034;-76
2022/02/23 02:33:36;;;;;;;19.42;4.47;;;;;;;5.31;81.69;99145.38;4816698;29;20041;-77
2022/02/23 02:36:01;;;;;;;14.13;4.20;;;;;;;5.36;81.51;99160.63;4827891;29;20540;-77
2022/02/23 02:38:27;;;;;;;18.90;4.38;;;;;;;5.25;81.13;99143.56;4822216;29;20042;-77
2022/02/23 02:40:52;;;;;;;22.88;4.78;;;;;;;5.37;81.21;99172.88;4821862;29;20042;-77
2022/02/23 02:43:18;;;;;;;14.73;4.15;;;;;;;5.36;81.15;99187.09;4821142;29;20374;-77
2022/02/23 02:45:43;;;;;;;17.85;3.92;;;;;;;5.33;80.97;99190.16;4822061;29;20034;-77
2022/02/23 02:48:08;;;;;;;18.15;5.25;;;;;;;5.35;81.36;99196.06;4816417;29;20062;-77
2022/02/23 02:50:34;;;;;;;15.20;4.82;;;;;;;5.35;81.44;99196.06;4819797;29;20042;-75
2022/02/23 02:52:59;;;;;;;20.13;4.82;;;;;;;5.33;81.63;99201.56;4820285;29;20049;-75
2022/02/23 02:55:25;;;;;;;16.33;3.45;;;;;;;5.34;81.47;99205.03;4820019;29;20488;-76
2022/02/23 02:57:50;;;;;;;15.27;4.15;;;;;;;5.34;81.27;99194.44;4819682;29;20055;-76
2022/02/23 03:00:16;;;;;;;14.02;4.25;;;;;;;5.34;81.00;99199.72;4818730;29;20757;-76
2022/02/23 03:02:41;;;;;;;15.88;4.40;;;;;;;5.30;80.96;99207.28;4820309;29;20140;-76
2022/02/23 03:05:07;;;;;;;18.48;4.05;;;;;;;5.38;81.48;99205.41;4819525;29;20065;-75
2022/02/23 03:07:32;;;;;;;10.70;4.00;;;;;;;5.37;81.88;99212.56;4819291;29;20041;-75
2022/02/23 03:09:58;;;;;;;17.92;3.90;;;;;;;5.36;81.88;99216.22;4821861;29;20037;-76
2022/02/23 03:12:23;;;;;;;16.67;4.22;;;;;;;5.36;81.42;99215.38;4826395;29;20122;-76
2022/02/23 03:14:48;;;;;;;15.00;3.92;;;;;;;5.38;81.28;99216.81;4804844;29;20086;-75
2022/02/23 03:17:14;;;;;;;10.55;3.83;;;;;;;5.38;81.37;99223.94;4818609;29;20117;-76
2022/02/23 03:19:39;;;;;;;16.45;4.28;;;;;;;5.35;80.88;99224.38;4819777;29;20045;-76
2022/02/23 03:22:04;;;;;;;18.08;4.38;;;;;;;5.37;81.68;99231.09;4819647;29;20148;-76
2022/02/23 03:24:29;;;;;;;15.23;4.97;;;;;;;5.36;81.18;99239.22;4817324;29;20060;-76
2022/02/23 03:26:55;;;;;;;16.52;4.30;;;;;;;5.31;81.67;99240.66;4821320;29;20034;-75
2022/02/23 03:29:20;;;;;;;17.20;4.60;;;;;;;5.35;80.75;99242.91;4819961;29;20505;-76
2022/02/23 03:31:46;;;;;;;18.85;5.57;;;;;;;5.35;80.61;99254.31;4821432;29;20050;-74
2022/02/23 03:34:11;;;;;;;15.82;5.07;;;;;;;5.38;80.96;99250.41;4822281;29;20042;-74
2022/02/23 03:36:36;;;;;;;18.83;4.32;;;;;;;5.36;80.49;99268.31;4821348;29;20125;-74
2022/02/23 03:39:03;;;;;;;10.68;3.70;;;;;;;5.39;80.72;99276.69;4819397;29;20038;-74
2022/02/23 03:41:29;;;;;;;18.65;5.78;;;;;;;5.39;80.47;99279.34;4815953;29;20035;-74
2022/02/23 03:43:54;;;;;;;15.25;4.55;;;;;;;5.37;80.92;99280.56;4820364;29;20049;-74
2022/02/23 03:46:19;;;;;;;13.43;4.07;;;;;;;5.38;81.07;99293.56;4821324;29;20033;-76
2022/02/23 03:48:45;;;;;;;19.90;4.40;;;;;;;5.40;81.19;99296.84;4822734;29;20042;-75
2022/02/23 03:51:10;;;;;;;11.00;4.60;;;;;;;5.40;80.62;99299.47;4822434;29;20038;-76
2022/02/23 03:53:36;;;;;;;18.88;4.10;;;;;;;5.33;81.13;99293.38;4821695;29;20488;-76
2022/02/23 03:56:01;;;;;;;16.45;4.55;;;;;;;5.29;80.90;99292.16;4820788;29;20022;-76
2022/02/23 03:58:27;;;;;;;10.90;3.40;;;;;;;5.36;80.70;99308.84;4820313;29;20049;-76
2022/02/23 04:00:52;;;;;;;20.70;4.50;;;;;;;5.40;81.11;99319.84;4822457;29;20464;-76
2022/02/23 04:03:18;;;;;;;20.48;5.53;;;;;;;5.39;81.01;99320.88;4805494;29;20030;-76
2022/02/23 04:05:44;;;;;;;13.80;4.57;;;;;;;5.40;80.79;99331.25;4813646;29;20045;-75
2022/02/23 04:08:09;;;;;;;18.95;4.82;;;;;;;5.36;81.20;99340.59;4821826;29;20160;-76
2022/02/23 04:10:35;;;;;;;19.25;4.32;;;;;;;5.41;81.45;99348.75;4821777;29;20101;-75
2022/02/23 04:13:01;;;;;;;20.00;4.07;;;;;;;5.42;81.32;99350.38;4817505;29;20102;-75
2022/02/23 04:15:26;;;;;;;21.70;4.63;;;;;;;5.35;81.55;99346.94;4818263;29;20532;-75
2022/02/23 04:17:51;;;;;;;16.60;4.60;;;;;;;5.43;81.32;99354.66;4819630;29;20030;-75
2022/02/23 04:20:17;;;;;;;14.77;4.43;;;;;;;5.43;81.07;99361.78;4819450;29;20057;-75
2022/02/23 04:22:44;;;;;;;14.85;4.45;;;;;;;5.40;81.35;99359.53;4818713;29;20038;-75
2022/02/23 04:25:10;;;;;;;17.20;4.07;;;;;;;5.44;81.56;99366.06;4819751;29;20617;-75
2022/02/23 04:27:36;;;;;;;18.00;4.15;;;;;;;5.42;81.26;99370.75;4831952;29;20054;-75
2022/02/23 04:30:05;;;;;;;17.58;5.63;;;;;;;5.44;80.85;99369.50;4817376;29;20030;-75
2022/02/23 04:32:31;;;;;;;14.25;3.95;;;;;;;5.46;80.93;99386.00;4817151;29;20444;-76
2022/02/23 04:34:57;;;;;;;10.77;3.95;;;;;;;5.41;80.86;99369.94;4831912;29;20558;-75
2022/02/23 04:37:25;;;;;;;19.20;4.95;;;;;;;5.47;80.70;99387.66;4816329;29;20129;-74
2022/02/23 04:39:50;;;;;;;17.20;4.43;;;;;;;5.44;81.58;99384.59;4817914;29;20056;-75
2022/02/23 04:42:16;;;;;;;16.05;4.50;;;;;;;5.46;81.51;99393.94;4819387;29;20504;-75
2022/02/23 04:44:41;;;;;;;15.60;4.82;;;;;;;5.45;80.92;99396.81;4816003;29;20141;-75
2022/02/23 04:47:06;;;;;;;13.60;4.03;;;;;;;5.45;81.44;99402.09;4818670;29;20043;-75
2022/02/23 04:49:32;;;;;;;17.27;3.65;;;;;;;5.49;80.95;99408.63;4802971;29;20070;-74
2022/02/23 04:51:57;;;;;;;23.38;4.30;;;;;;;5.47;80.75;99416.78;4822410;29;20029;-74
2022/02/23 04:54:23;;;;;;;13.10;4.22;;;;;;;5.50;80.67;99426.97;4793025;29;20042;-75
2022/02/23 04:56:49;;;;;;;20.25;3.92;;;;;;;5.48;81.03;99430.84;4824488;29;20113;-75
2022/02/23 04:59:14;;;;;;;15.55;4.85;;;;;;;5.48;80.91;99428.19;4823717;29;20050;-75
2022/02/23 05:01:40;;;;;;;17.15;3.95;;;;;;;5.50;79.96;99434.09;4828168;29;20054;-75
2022/02/23 05:04:05;;;;;;;20.45;4.90;;;;;;;5.47;80.90;99437.94;4824246;29;20046;-75
2022/02/23 05:06:30;;;;;;;11.07;4.20;;;;;;;5.47;80.73;99448.53;4822584;29;20820;-75
2022/02/23 05:08:55;;;;;;;12.80;4.05;;;;;;;5.44;80.66;99442.84;4823832;29;20048;-75
2022/02/23 05:11:21;;;;;;;22.02;4.68;;;;;;;5.44;80.93;99448.94;4821677;29;20038;-75
2022/02/23 05:13:46;;;;;;;15.10;3.78;;;;;;;5.49;80.80;99450.97;4821406;29;20497;-75
2022/02/23 05:16:12;;;;;;;17.10;3.88;;;;;;;5.52;80.73;99456.69;4826724;29;20508;-76
2022/02/23 05:18:37;;;;;;;15.63;6.47;;;;;;;5.50;80.36;99453.44;4821063;29;20034;-76
2022/02/23 05:21:03;;;;;;;15.73;4.72;;;;;;;5.51;80.23;99455.06;4829376;29;20049;-76
2022/02/23 05:23:28;;;;;;;18.02;4.20;;;;;;;5.52;80.18;99458.53;4822886;29;20034;-76
2022/02/23 05:25:54;;;;;;;17.95;4.32;;;;;;;5.47;79.97;99464.41;4823059;29;20077;-76
2022/02/23 05:28:20;;;;;;;20.50;5.05;;;;;;;5.46;80.66;99467.28;4821066;29;20398;-76
2022/02/23 05:30:46;;;;;;;17.48;4.13;;;;;;;5.50;79.97;99471.16;4822653;29;20034;-75
2022/02/23 05:33:11;;;;;;;22.60;4.38;;;;;;;5.47;80.71;99477.66;4822836;29;20129;-76
2022/02/23 05:35:37;;;;;;;17.98;4.10;;;;;;;5.45;80.92;99489.47;4821583;29;20626;-75
2022/02/23 05:38:02;;;;;;;13.32;3.88;;;;;;;5.43;80.55;99497.59;4822709;29;20034;-76
2022/02/23 05:40:28;;;;;;;16.15;4.20;;;;;;;5.45;79.90;99502.69;4822829;29;20034;-76
2022/02/23 05:42:56;;;;;;;18.85;4.57;;;;;;;5.44;80.94;99498.44;4823466;29;20649;-75
2022/02/23 05:45:22;;;;;;;15.40;4.00;;;;;;;5.46;80.31;99507.00;4826634;29;20030;-76
2022/02/23 05:47:47;;;;;;;17.65;4.82;;;;;;;5.40;79.79;99497.16;4818564;29;20497;-76
2022/02/23 05:50:13;;;;;;;16.05;4.28;;;;;;;5.39;80.34;99501.69;4823420;29;20034;-76
2022/02/23 05:52:38;;;;;;;22.83;4.72;;;;;;;5.41;80.00;99507.59;4823351;29;20065;-76
2022/02/23 05:55:04;;;;;;;20.02;4.60;;;;;;;5.43;79.71;99510.03;4822710;29;20046;-78
2022/02/23 05:57:31;;;;;;;15.10;4.72;;;;;;;5.38;80.42;99515.91;4821572;29;20050;-76
2022/02/23 05:59:56;;;;;;;13.65;4.88;;;;;;;5.41;80.37;99523.47;4831711;29;20121;-76
2022/02/23 06:02:21;;;;;;;21.33;4.88;;;;;;;5.33;80.12;99518.31;4822233;29;20050;-76
2022/02/23 06:04:47;;;;;;;17.13;4.72;;;;;;;5.43;80.42;99531.19;4820127;29;20034;-76
2022/02/23 06:07:12;;;;;;;20.80;6.05;;;;;;;5.39;80.15;99532.63;4822512;29;20400;-75
2022/02/23 06:09:43;;;;;;;21.27;4.95;;;;;;;5.39;80.46;99541.38;4822231;29;20078;-75
2022/02/23 06:12:08;;;;;;;19.25;5.88;;;;;;;5.40;80.04;99545.63;4823392;29;20077;-75
2022/02/23 06:14:34;;;;;;;14.20;4.53;;;;;;;5.42;79.37;99540.16;4823308;29;20065;-75
2022/02/23 06:16:59;;;;;;;22.58;5.40;;;;;;;5.41;78.80;99549.09;4824771;29;20032;-75
2022/02/23 06:19:25;;;;;;;21.05;6.55;;;;;;;5.42;79.14;99554.19;4822155;29;20365;-75
2022/02/23 06:21:50;;;;;;;19.45;5.32;;;;;;;5.40;79.40;99558.06;4823580;29;20050;-75
2022/02/23 06:24:16;;;;;;;22.80;5.68;;;;;;;5.36;78.51;99559.47;4823758;29;20034;-75
2022/02/23 06:26:41;;;;;;;15.50;4.80;;;;;;;5.35;78.49;99561.31;4823206;29;20058;-75
2022/02/23 06:29:07;;;;;;;18.60;5.53;;;;;;;5.32;78.93;99565.16;4823198;29;20497;-75
2022/02/23 06:31:32;;;;;;;18.90;5.28;;;;;;;5.32;79.27;99570.47;4820220;29;20038;-75
2022/02/23 06:33:57;;;;;;;19.67;5.95;;;;;;;5.33;79.16;99581.84;4822549;29;20031;-75
2022/02/23 06:36:24;;;;;;;21.50;6.22;;;;;;;5.30;78.67;99579.59;4823941;29;20046;-74
2022/02/23 06:38:50;;;;;;;22.77;6.10;;;;;;;5.25;78.18;99571.44;4822089;29;20493;-78
2022/02/23 06:41:19;;;;;;;22.77;5.70;;;;;;;5.22;78.66;99582.44;4822276;29;20117;-74
2022/02/23 06:43:46;;;;;;;22.27;6.15;;;;;;;5.24;78.35;99588.34;4821035;29;20037;-74
2022/02/23 06:46:12;;;;;;;17.25;6.00;;;;;;;5.25;78.63;99589.97;4817609;29;20034;-74
2022/02/23 06:48:37;;;;;;;27.73;8.05;;;;;;;5.25;79.07;99592.59;4818454;29;20174;-74
2022/02/23 06:51:04;;;;;;;21.75;5.65;;;;;;;5.19;78.40;99596.03;4822262;29;20450;-74
2022/02/23 06:53:30;;;;;;;19.85;7.63;;;;;;;5.15;78.52;99581.56;4822990;29;20118;-74
2022/02/23 06:55:56;;;;;;;21.63;6.57;;;;;;;5.22;78.60;99596.44;4826338;29;20030;-75
2022/02/23 06:58:22;;;;;;;25.25;8.13;;;;;;;5.24;78.84;99601.56;4819258;29;20392;-74
2022/02/23 07:00:48;;;;;;;25.45;6.30;;;;;;;5.22;78.55;99603.59;4821728;29;20041;-74
2022/02/23 07:03:13;;;;;;;19.40;7.97;;;;;;;5.26;79.08;99615.44;4822264;29;20042;-73
2022/02/23 07:05:39;;;;;;;19.25;6.50;;;;;;;5.23;79.05;99610.50;4824519;29;20147;-74
2022/02/23 07:08:07;;;;;;;21.83;5.47;;;;;;;5.27;79.02;99614.41;4822831;29;20040;-75
2022/02/23 07:10:34;;;;;;;14.88;5.22;;;;;;;5.27;78.65;99615.22;4820453;29;20041;-74
2022/02/23 07:13:04;;;;;;;19.80;5.82;;;;;;;5.26;78.61;99618.06;4819967;29;20038;-74
2022/02/23 07:15:29;;;;;;;17.48;5.55;;;;;;;5.26;78.69;99626.00;4820553;29;20388;-74
2022/02/23 07:17:55;;;;;;;22.55;6.15;;;;;;;5.21;78.59;99612.53;4819626;29;20030;-74
2022/02/23 07:20:22;;;;;;;20.45;7.22;;;;;;;5.27;79.08;99627.63;4818870;29;20129;-74
2022/02/23 07:22:48;;;;;;;27.05;5.65;;;;;;;5.30;78.77;99635.19;4815476;29;20073;-74
2022/02/23 07:25:13;;;;;;;25.80;5.57;;;;;;;5.34;78.93;99633.78;4819570;29;20061;-74
2022/02/23 07:27:39;;;;;;;19.85;5.60;;;;;;;5.33;79.21;99640.06;4822263;29;20038;-74
2022/02/23 07:30:08;;;;;;;20.63;5.63;;;;;;;5.33;78.79;99638.25;4822739;29;20030;-74
2022/02/23 07:32:34;;;;;;;16.35;5.35;;;;;;;5.39;79.37;99644.59;4818890;29;20042;-74
2022/02/23 07:35:00;;;;;;;26.23;5.80;;;;;;;5.40;79.46;99643.59;4819511;29;20389;-75
2022/02/23 07:37:26;;;;;;;21.60;5.70;;;;;;;5.38;78.71;99653.53;4819574;29;20033;-74
2022/02/23 07:39:55;;;;;;;16.70;5.35;;;;;;;5.43;78.43;99655.63;4816807;29;20031;-74
2022/02/23 07:42:21;;;;;;;16.20;5.10;;;;;;;5.44;79.01;99655.41;4825071;29;20089;-74
2022/02/23 07:44:47;;;;;;;25.42;6.05;;;;;;;5.41;78.61;99645.22;4820305;29;20057;-74
2022/02/23 07:47:15;;;;;;;17.92;4.78;;;;;;;5.47;78.95;99657.69;4819185;29;20038;-76
2022/02/23 07:49:41;;;;;;;23.55;5.43;;;;;;;5.44;78.46;99659.91;4821224;29;20067;-74
2022/02/23 07:52:07;;;;;;;19.60;5.90;;;;;;;5.48;78.78;99664.63;4814146;29;20030;-73
2022/02/23 07:54:32;;;;;;;20.73;6.22;;;;;;;5.51;78.86;99661.56;4820057;29;20042;-74
2022/02/23 07:56:58;;;;;;;31.35;6.18;;;;;;;5.45;78.16;99656.22;4820521;29;20125;-73
2022/02/23 07:59:23;;;;;;;20.30;5.20;;;;;;;5.55;78.67;99667.31;4821566;29;20041;-74
2022/02/23 08:01:49;;;;;;;28.75;5.65;;;;;;;5.55;78.73;99668.09;4814927;29;20180;-74
2022/02/23 08:04:15;;;;;;;21.02;5.60;;;;;;;5.49;77.80;99658.28;4832912;29;20034;-74
2022/02/23 08:06:41;;;;;;;24.60;7.63;;;;;;;5.54;78.09;99666.47;4818614;29;20087;-74
2022/02/23 08:09:08;;;;;;;21.52;5.35;;;;;;;5.56;77.79;99664.44;4821104;29;20392;-75
2022/02/23 08:11:36;;;;;;;22.45;5.88;;;;;;;5.60;78.77;99668.34;4819664;29;20041;-73
2022/02/23 08:14:03;;;;;;;16.05;5.80;;;;;;;5.62;77.92;99662.84;4824173;29;20041;-74
2022/02/23 08:22:00;;;;;;;20.88;5.85;;;;;;;5.62;78.53;99663.66;4822906;29;20077;-74
2022/02/23 08:24:27;;;;;;;26.55;6.72;;;;;;;5.62;78.12;99663.66;4823156;29;20081;-75
2022/02/23 08:26:54;;;;;;;25.48;6.18;;;;;;;5.62;77.47;99662.84;4824556;29;20513;-74
2022/02/23 08:29:19;;;;;;;19.60;5.78;;;;;;;5.60;78.50;99670.16;4823546;29;20078;-75
2022/02/23 08:31:44;;;;;;;19.30;5.88;;;;;;;5.59;78.68;99673.84;4819914;29;20429;-75
2022/02/23 08:34:10;;;;;;;18.30;5.50;;;;;;;5.61;77.92;99677.09;4824776;29;20042;-74
2022/02/23 08:36:35;;;;;;;25.45;6.47;;;;;;;5.64;78.12;99680.16;4819961;29;20038;-74
2022/02/23 08:39:00;;;;;;;14.48;5.35;;;;;;;5.58;78.24;99673.00;4826896;29;20034;-74
2022/02/23 08:41:27;;;;;;;14.68;5.45;;;;;;;5.63;78.25;99683.03;4819818;29;20041;-74
2022/02/23 08:43:52;;;;;;;19.40;5.97;;;;;;;5.62;77.84;99681.38;4821687;29;20509;-74
2022/02/23 08:46:18;;;;;;;23.10;5.30;;;;;;;5.63;78.02;99675.91;4822463;29;20122;-75
2022/02/23 08:48:44;;;;;;;19.60;7.55;;;;;;;5.62;77.70;99668.13;4819739;29;20090;-76
2022/02/23 08:51:09;;;;;;;21.65;5.97;;;;;;;5.64;77.70;99682.81;4822561;29;20041;-74
2022/02/23 08:53:34;;;;;;;25.88;5.10;;;;;;;5.64;78.02;99676.69;4830851;29;20034;-74
2022/02/23 08:56:00;;;;;;;19.85;5.72;;;;;;;5.65;77.85;99673.03;4825202;29;20050;-74
2022/02/23 08:58:25;;;;;;;14.40;5.38;;;;;;;5.66;77.62;99677.31;4824270;29;20057;-74
2022/02/23 09:00:51;;;;;;;22.95;6.10;;;;;;;5.67;77.81;99682.44;4822565;29;20034;-74
2022/02/23 09:03:22;;;;;;;17.65;4.93;;;;;;;5.61;77.29;99672.63;4821127;29;20034;-74
2022/02/23 09:05:48;;;;;;;18.20;5.28;;;;;;;5.65;77.22;99662.44;4823990;29;20133;-75
2022/02/23 09:08:13;;;;;;;21.17;6.35;;;;;;;5.72;76.97;99681.84;4821846;29;20117;-74
2022/02/23 09:10:39;;;;;;;13.27;5.10;;;;;;;5.69;77.96;99680.41;4822478;29;20038;-74
2022/02/23 09:13:05;;;;;;;18.80;4.55;;;;;;;5.59;77.56;99661.38;4823746;29;20151;-75
2022/02/23 09:15:31;;;;;;;21.92;5.68;;;;;;;5.72;78.03;99671.25;4816792;29;20057;-74
2022/02/23 09:17:57;;;;;;;25.17;5.82;;;;;;;5.71;77.37;99682.84;4823201;29;20388;-74
2022/02/23 09:20:22;;;;;;;17.10;5.38;;;;;;;5.72;77.17;99680.00;4823712;29;20046;-74
2022/02/23 09:22:48;;;;;;;22.83;4.95;;;;;;;5.76;77.51;99688.38;4818766;29;20065;-74
2022/02/23 09:25:13;;;;;;;16.80;4.93;;;;;;;5.75;77.22;99694.66;4820323;29;20034;-74
2022/02/23 09:27:39;;;;;;;17.55;6.22;;;;;;;5.75;77.55;99687.56;4823391;29;20051;-74
2022/02/23 09:30:08;;;;;;;18.83;5.15;;;;;;;5.77;77.18;99700.59;4823213;29;20034;-74
2022/02/23 09:32:33;;;;;;;21.98;5.15;;;;;;;5.77;77.43;99682.88;4831722;29;20550;-74
2022/02/23 09:34:59;;;;;;;18.05;5.60;;;;;;;5.78;77.00;99684.53;4831240;29;20068;-74
2022/02/23 09:37:24;;;;;;;16.30;4.90;;;;;;;5.78;76.66;99692.47;4822523;29;20030;-74
2022/02/23 09:39:49;;;;;;;21.35;5.10;;;;;;;5.82;76.74;99703.47;4823268;29;20408;-75
2022/02/23 09:42:15;;;;;;;17.05;4.75;;;;;;;5.82;76.66;99701.66;4822538;29;20484;-74
2022/02/23 09:44:42;;;;;;;16.80;5.28;;;;;;;5.83;76.85;99705.13;4823813;29;20082;-74
2022/02/23 09:47:08;;;;;;;12.82;4.25;;;;;;;5.65;76.60;99671.22;4822504;29;20042;-74
2022/02/23 09:49:35;;;;;;;17.50;5.28;;;;;;;5.81;77.41;99694.72;4823106;29;20031;-74
2022/02/23 09:52:01;;;;;;;19.00;4.72;;;;;;;5.88;77.23;99708.84;4829499;29;20025;-74
2022/02/23 09:54:27;;;;;;;19.15;5.15;;;;;;;5.88;77.38;99702.72;4820887;29;20124;-74
2022/02/23 09:56:52;;;;;;;17.55;5.03;;;;;;;5.92;76.99;99707.41;4818023;29;20640;-75
2022/02/23 09:59:17;;;;;;;17.05;4.43;;;;;;;5.93;76.61;99722.31;4817613;29;20463;-73
2022/02/23 10:01:44;;;;;;;18.27;4.25;;;;;;;5.96;76.41;99710.50;4824109;29;20396;-74
2022/02/23 10:04:10;;;;;;;17.88;4.35;;;;;;;5.97;77.14;99699.72;4830496;29;20045;-75
2022/02/23 10:06:39;;;;;;;24.70;3.92;;;;;;;5.99;77.31;99702.97;4817562;29;20411;-74
2022/02/23 10:09:08;;;;;;;20.17;4.88;;;;;;;6.02;76.28;99701.75;4822588;29;20025;-75
2022/02/23 10:11:34;;;;;;;18.40;4.38;;;;;;;6.05;76.42;99711.94;4821938;29;20037;-74
2022/02/23 10:14:03;;;;;;;17.90;4.07;;;;;;;6.06;76.42;99710.94;4825728;29;20086;-74
2022/02/23 10:16:34;;;;;;;13.48;3.55;;;;;;;6.07;76.36;99701.19;4823562;29;20030;-74
2022/02/23 10:19:21;;;;;;;11.13;3.67;;;;;;;6.07;76.92;99712.59;4819330;29;20469;-74
2022/02/23 10:21:57;;;;;;;20.80;4.13;;;;;;;6.13;75.71;99719.75;4822578;29;20034;-75
2022/02/23 10:24:33;;;;;;;18.55;3.92;;;;;;;6.16;75.77;99715.88;4820114;29;20109;-74
2022/02/23 10:27:00;;;;;;;;;;;;;;;6.11;75.85;99715.66;4821434;29;20091;-74
2022/02/23 10:29:30;;;;;;;;;;;;;;;6.09;75.79;99715.03;4832844;29;19923;-74
2022/02/23 10:32:00;;;;;;;13.13;3.10;;;;;;;6.12;75.55;99714.63;4822714;29;19958;-74
2022/02/23 10:34:26;;;;;;;18.15;5.68;;;;;;;6.13;75.70;99716.28;4818486;29;20577;-75
2022/02/23 10:37:05;;;;;;;11.23;3.38;;;;;;;6.17;76.46;99712.22;4821800;29;20026;-74
2022/02/23 10:39:35;;;;;;;18.08;3.83;;;;;;;6.21;76.32;99708.97;4820636;29;20030;-74
2022/02/23 10:42:12;;;;;;;13.35;3.42;;;;;;;6.25;75.58;99718.16;4821231;29;20034;-74
2022/02/23 10:44:43;;;;;;;18.88;2.97;;;;;;;6.26;75.16;99718.97;4820340;29;20062;-74
2022/02/23 10:47:13;;;;;;;20.13;6.22;;;;;;;6.30;75.29;99721.03;4814369;29;20548;-74
2022/02/23 10:49:39;;;;;;;13.43;3.08;;;;;;;6.33;74.43;99727.78;4816524;29;20117;-74
2022/02/23 10:52:09;;;;;;;8.30;2.55;;;;;;;6.35;73.99;99717.78;4818742;29;20133;-75
2022/02/23 10:54:35;;;;;;;13.00;3.25;;;;;;;6.36;75.25;99719.41;4817320;29;20049;-73
2022/02/23 10:57:17;;;;;;;5.72;2.55;;;;;;;6.36;75.02;99719.41;4819915;29;20034;-74
2022/02/23 10:59:42;;;;;;;8.68;2.78;;;;;;;6.41;74.69;99711.66;4815950;29;20086;-74
2022/02/23 11:02:08;;;;;;;15.32;3.40;;;;;;;6.43;74.11;99706.97;4816129;29;20030;-73
2022/02/23 11:04:33;;;;;;;11.95;3.25;;;;;;;6.46;74.32;99710.06;4816668;29;20190;-72
2022/02/23 11:06:59;;;;;;;10.80;3.42;;;;;;;6.49;74.10;99720.25;4819173;29;20552;-72
2022/02/23 11:09:24;;;;;;;11.38;3.30;;;;;;;6.51;74.36;99720.88;4818341;29;20053;-73
2022/02/23 11:11:50;;;;;;;17.98;3.05;;;;;;;6.53;73.54;99718.81;4821624;29;20437;-74
2022/02/23 11:14:18;;;;;;;6.70;2.95;;;;;;;6.57;74.12;99716.59;4815927;29;20042;-72
2022/02/23 11:16:46;;;;;;;15.90;2.42;;;;;;;6.60;73.94;99716.19;4817036;29;20041;-72
2022/02/23 11:19:16;;;;;;;8.77;3.08;;;;;;;6.62;73.65;99703.53;4817149;29;20519;-73
2022/02/23 11:21:43;;;;;;;8.20;2.80;;;;;;;6.63;72.65;99710.50;4818907;29;20030;-73
2022/02/23 11:24:09;;;;;;;10.63;2.67;;;;;;;6.66;73.61;99704.78;4810468;29;20047;-74
2022/02/23 11:26:36;;;;;;;14.13;2.95;;;;;;;6.69;72.81;99701.72;4812671;29;20061;-74
2022/02/23 11:29:06;;;;;;;9.32;2.92;;;;;;;6.75;72.31;99703.56;4816778;29;20044;-72
2022/02/23 11:31:36;;;;;;;11.10;2.50;;;;;;;6.77;71.29;99705.00;4815192;29;20030;-72
2022/02/23 11:34:04;;;;;;;8.60;2.15;;;;;;;6.79;71.60;99694.19;4813111;29;20038;-73